sensor_id;sensor_type;location;lat;lon;timestamp;temperature;humidity
5846;DHT22;2949;50.778;7.094;2022-08-21T00:00:53;15.50;99.90
5846;DHT22;2949;50.778;7.094;2022-08-21T00:03:19;15.50;99.90
5846;DHT22;2949;50.778;7.094;2022-08-21T00:05:48;15.40;99.90
5846;DHT22;2949;50.778;7.094;2022-08-21T00:08:16;15.50;99.90
5846;DHT22;2949;50.778;7.094;2022-08-21T00:10:42;15.50;99.90
5846;DHT22;2949;50.778;7.094;2022-08-21T00:13:08;15.50;99.90
5846;DHT22;2949;50.778;7.094;2022-08-21T00:15:36;15.50;99.90
5846;DHT22;2949;50.778;7.094;2022-08-21T00:18:03;15.40;99.90
5846;DHT22;2949;50.778;7.094;2022-08-21T00:20:29;15.40;99.90
5846;DHT22;2949;50.778;7.094;2022-08-21T00:22:55;15.40;99.90
5846;DHT22;2949;50.778;7.094;2022-08-21T00:25:21;15.20;99.90
5846;DHT22;2949;50.778;7.094;2022-08-21T00:27:47;15.10;99.90
5846;DHT22;2949;50.778;7.094;2022-08-21T00:30:15;15.00;99.90
5846;DHT22;2949;50.778;7.094;2022-08-21T00:32:42;15.00;99.90
5846;DHT22;2949;50.778;7.094;2022-08-21T00:35:10;15.00;99.90
5846;DHT22;2949;50.778;7.094;2022-08-21T00:37:38;15.00;99.90
5846;DHT22;2949;50.778;7.094;2022-08-21T00:40:06;15.10;99.90
5846;DHT22;2949;50.778;7.094;2022-08-21T00:42:33;15.10;99.90
5846;DHT22;2949;50.778;7.094;2022-08-21T00:44:58;15.10;99.90
5846;DHT22;2949;50.778;7.094;2022-08-21T00:47:24;15.10;99.90
5846;DHT22;2949;50.778;7.094;2022-08-21T00:49:50;15.00;99.90
5846;DHT22;2949;50.778;7.094;2022-08-21T00:52:19;14.90;99.90
5846;DHT22;2949;50.778;7.094;2022-08-21T00:54:46;14.90;99.90
5846;DHT22;2949;50.778;7.094;2022-08-21T00:57:29;14.80;99.90
5846;DHT22;2949;50.778;7.094;2022-08-21T00:59:58;14.70;99.90
5846;DHT22;2949;50.778;7.094;2022-08-21T01:02:25;14.70;99.90
5846;DHT22;2949;50.778;7.094;2022-08-21T01:04:51;14.70;99.90
5846;DHT22;2949;50.778;7.094;2022-08-21T01:07:17;14.70;99.90
5846;DHT22;2949;50.778;7.094;2022-08-21T01:09:43;14.60;99.90
5846;DHT22;2949;50.778;7.094;2022-08-21T01:12:09;14.60;99.90
5846;DHT22;2949;50.778;7.094;2022-08-21T01:14:36;14.70;99.90
5846;DHT22;2949;50.778;7.094;2022-08-21T01:17:03;14.60;99.90
5846;DHT22;2949;50.778;7.094;2022-08-21T01:19:29;14.60;99.90
5846;DHT22;2949;50.778;7.094;2022-08-21T01:21:55;14.60;99.90
5846;DHT22;2949;50.778;7.094;2022-08-21T01:24:21;14.40;99.90
5846;DHT22;2949;50.778;7.094;2022-08-21T01:26:48;14.50;99.90
5846;DHT22;2949;50.778;7.094;2022-08-21T01:31:49;14.40;99.90
5846;DHT22;2949;50.778;7.094;2022-08-21T01:34:15;14.30;99.90
5846;DHT22;2949;50.778;7.094;2022-08-21T01:36:41;14.30;99.90
5846;DHT22;2949;50.778;7.094;2022-08-21T01:39:07;14.10;99.90
5846;DHT22;2949;50.778;7.094;2022-08-21T01:41:33;14.10;99.90
5846;DHT22;2949;50.778;7.094;2022-08-21T01:43:58;14.10;99.90
5846;DHT22;2949;50.778;7.094;2022-08-21T01:46:24;14.00;99.90
5846;DHT22;2949;50.778;7.094;2022-08-21T01:48:50;14.00;99.90
5846;DHT22;2949;50.778;7.094;2022-08-21T01:51:16;14.00;99.90
5846;DHT22;2949;50.778;7.094;2022-08-21T01:53:42;14.00;99.90
5846;DHT22;2949;50.778;7.094;2022-08-21T01:56:10;14.10;99.90
5846;DHT22;2949;50.778;7.094;2022-08-21T01:58:36;14.10;99.90
5846;DHT22;2949;50.778;7.094;2022-08-21T02:01:03;14.10;99.90
5846;DHT22;2949;50.778;7.094;2022-08-21T02:03:29;14.10;99.90
5846;DHT22;2949;50.778;7.094;2022-08-21T02:05:55;14.10;99.90
5846;DHT22;2949;50.778;7.094;2022-08-21T02:08:22;14.10;99.90
5846;DHT22;2949;50.778;7.094;2022-08-21T02:10:49;14.10;99.90
5846;DHT22;2949;50.778;7.094;2022-08-21T02:13:15;14.10;99.90
5846;DHT22;2949;50.778;7.094;2022-08-21T02:15:41;14.10;99.90
5846;DHT22;2949;50.778;7.094;2022-08-21T02:18:07;14.00;99.90
5846;DHT22;2949;50.778;7.094;2022-08-21T02:20:42;14.00;99.90
5846;DHT22;2949;50.778;7.094;2022-08-21T02:23:09;14.00;99.90
5846;DHT22;2949;50.778;7.094;2022-08-21T02:25:36;14.00;99.90
5846;DHT22;2949;50.778;7.094;2022-08-21T02:28:10;13.90;99.90
5846;DHT22;2949;50.778;7.094;2022-08-21T02:30:40;13.90;99.90
5846;DHT22;2949;50.778;7.094;2022-08-21T02:33:06;13.90;99.90
5846;DHT22;2949;50.778;7.094;2022-08-21T02:35:32;13.90;99.90
5846;DHT22;2949;50.778;7.094;2022-08-21T02:38:02;13.90;99.90
5846;DHT22;2949;50.778;7.094;2022-08-21T02:40:30;13.80;99.90
5846;DHT22;2949;50.778;7.094;2022-08-21T02:42:58;13.80;99.90
5846;DHT22;2949;50.778;7.094;2022-08-21T02:45:24;13.70;99.90
5846;DHT22;2949;50.778;7.094;2022-08-21T02:47:52;13.70;99.90
5846;DHT22;2949;50.778;7.094;2022-08-21T02:50:20;13.70;99.90
5846;DHT22;2949;50.778;7.094;2022-08-21T02:52:46;13.60;99.90
5846;DHT22;2949;50.778;7.094;2022-08-21T02:55:12;13.60;99.90
5846;DHT22;2949;50.778;7.094;2022-08-21T02:57:38;13.50;99.90
5846;DHT22;2949;50.778;7.094;2022-08-21T03:00:05;13.50;99.90
5846;DHT22;2949;50.778;7.094;2022-08-21T03:02:31;13.50;99.90
5846;DHT22;2949;50.778;7.094;2022-08-21T03:04:56;13.50;99.90
5846;DHT22;2949;50.778;7.094;2022-08-21T03:07:22;13.50;99.90
5846;DHT22;2949;50.778;7.094;2022-08-21T03:09:47;13.50;99.90
5846;DHT22;2949;50.778;7.094;2022-08-21T03:12:13;13.40;99.90
5846;DHT22;2949;50.778;7.094;2022-08-21T03:14:38;13.40;99.90
5846;DHT22;2949;50.778;7.094;2022-08-21T03:17:04;13.40;99.90
5846;DHT22;2949;50.778;7.094;2022-08-21T03:19:30;13.30;99.90
5846;DHT22;2949;50.778;7.094;2022-08-21T03:21:56;13.30;99.90
5846;DHT22;2949;50.778;7.094;2022-08-21T03:24:21;13.30;99.90
5846;DHT22;2949;50.778;7.094;2022-08-21T03:26:47;13.20;99.90
5846;DHT22;2949;50.778;7.094;2022-08-21T03:29:12;13.20;99.90
5846;DHT22;2949;50.778;7.094;2022-08-21T03:31:38;13.20;99.90
5846;DHT22;2949;50.778;7.094;2022-08-21T03:34:03;13.20;99.90
5846;DHT22;2949;50.778;7.094;2022-08-21T03:36:29;13.20;99.90
5846;DHT22;2949;50.778;7.094;2022-08-21T03:38:54;13.20;99.90
5846;DHT22;2949;50.778;7.094;2022-08-21T03:41:20;13.10;99.90
5846;DHT22;2949;50.778;7.094;2022-08-21T03:43:46;13.10;99.90
5846;DHT22;2949;50.778;7.094;2022-08-21T03:46:11;13.10;99.90
5846;DHT22;2949;50.778;7.094;2022-08-21T03:48:37;13.10;99.90
5846;DHT22;2949;50.778;7.094;2022-08-21T03:51:03;13.10;99.90
5846;DHT22;2949;50.778;7.094;2022-08-21T03:53:29;13.00;99.90
5846;DHT22;2949;50.778;7.094;2022-08-21T03:55:55;13.00;99.90
5846;DHT22;2949;50.778;7.094;2022-08-21T03:58:24;13.00;99.90
5846;DHT22;2949;50.778;7.094;2022-08-21T04:00:54;13.00;99.90
5846;DHT22;2949;50.778;7.094;2022-08-21T04:03:21;13.00;99.90
5846;DHT22;2949;50.778;7.094;2022-08-21T04:05:46;13.00;99.90
5846;DHT22;2949;50.778;7.094;2022-08-21T04:08:14;12.90;99.90
5846;DHT22;2949;50.778;7.094;2022-08-21T04:10:40;12.90;99.90
5846;DHT22;2949;50.778;7.094;2022-08-21T04:13:07;12.90;99.90
5846;DHT22;2949;50.778;7.094;2022-08-21T04:15:33;12.90;99.90
5846;DHT22;2949;50.778;7.094;2022-08-21T04:17:59;12.80;99.90
5846;DHT22;2949;50.778;7.094;2022-08-21T04:20:26;12.80;99.90
5846;DHT22;2949;50.778;7.094;2022-08-21T04:22:52;12.80;99.90
5846;DHT22;2949;50.778;7.094;2022-08-21T04:25:20;12.70;99.90
5846;DHT22;2949;50.778;7.094;2022-08-21T04:27:46;12.70;99.90
5846;DHT22;2949;50.778;7.094;2022-08-21T04:30:13;12.70;99.90
5846;DHT22;2949;50.778;7.094;2022-08-21T04:32:42;12.70;99.90
5846;DHT22;2949;50.778;7.094;2022-08-21T04:35:10;12.70;99.90
5846;DHT22;2949;50.778;7.094;2022-08-21T04:37:36;12.70;99.90
5846;DHT22;2949;50.778;7.094;2022-08-21T04:40:03;12.70;99.90
5846;DHT22;2949;50.778;7.094;2022-08-21T04:42:28;12.80;99.90
5846;DHT22;2949;50.778;7.094;2022-08-21T04:44:55;12.80;99.90
5846;DHT22;2949;50.778;7.094;2022-08-21T04:47:22;12.80;99.90
5846;DHT22;2949;50.778;7.094;2022-08-21T04:49:48;12.90;99.90
5846;DHT22;2949;50.778;7.094;2022-08-21T04:52:18;12.90;99.90
5846;DHT22;2949;50.778;7.094;2022-08-21T04:54:45;12.90;99.90
5846;DHT22;2949;50.778;7.094;2022-08-21T04:57:13;13.00;99.90
5846;DHT22;2949;50.778;7.094;2022-08-21T04:59:47;13.00;99.90
5846;DHT22;2949;50.778;7.094;2022-08-21T05:02:14;13.10;99.90
5846;DHT22;2949;50.778;7.094;2022-08-21T05:04:45;13.10;99.90
5846;DHT22;2949;50.778;7.094;2022-08-21T05:07:16;13.10;99.90
5846;DHT22;2949;50.778;7.094;2022-08-21T05:09:43;13.20;99.90
5846;DHT22;2949;50.778;7.094;2022-08-21T05:12:09;13.30;99.90
5846;DHT22;2949;50.778;7.094;2022-08-21T05:14:36;13.40;99.90
5846;DHT22;2949;50.778;7.094;2022-08-21T05:17:02;13.50;99.90
5846;DHT22;2949;50.778;7.094;2022-08-21T05:19:27;13.60;99.90
5846;DHT22;2949;50.778;7.094;2022-08-21T05:21:53;13.60;99.90
5846;DHT22;2949;50.778;7.094;2022-08-21T05:24:19;13.70;99.90
5846;DHT22;2949;50.778;7.094;2022-08-21T05:26:45;13.80;99.90
5846;DHT22;2949;50.778;7.094;2022-08-21T05:29:12;13.80;99.90
5846;DHT22;2949;50.778;7.094;2022-08-21T05:31:38;13.90;99.90
5846;DHT22;2949;50.778;7.094;2022-08-21T05:34:05;14.00;99.90
5846;DHT22;2949;50.778;7.094;2022-08-21T05:36:31;14.20;99.90
5846;DHT22;2949;50.778;7.094;2022-08-21T05:38:56;14.30;99.90
5846;DHT22;2949;50.778;7.094;2022-08-21T05:41:22;14.40;99.90
5846;DHT22;2949;50.778;7.094;2022-08-21T05:43:47;14.40;99.90
5846;DHT22;2949;50.778;7.094;2022-08-21T05:46:13;14.50;99.90
5846;DHT22;2949;50.778;7.094;2022-08-21T05:48:39;14.60;99.90
5846;DHT22;2949;50.778;7.094;2022-08-21T05:51:07;14.70;99.90
5846;DHT22;2949;50.778;7.094;2022-08-21T05:53:33;14.80;99.90
5846;DHT22;2949;50.778;7.094;2022-08-21T05:55:59;14.90;99.90
5846;DHT22;2949;50.778;7.094;2022-08-21T05:58:24;15.00;99.90
5846;DHT22;2949;50.778;7.094;2022-08-21T06:00:50;15.10;99.90
5846;DHT22;2949;50.778;7.094;2022-08-21T06:03:23;15.30;99.90
5846;DHT22;2949;50.778;7.094;2022-08-21T06:05:49;15.50;99.90
5846;DHT22;2949;50.778;7.094;2022-08-21T06:08:16;15.70;99.90
5846;DHT22;2949;50.778;7.094;2022-08-21T06:10:43;15.80;99.90
5846;DHT22;2949;50.778;7.094;2022-08-21T06:13:09;16.10;99.90
5846;DHT22;2949;50.778;7.094;2022-08-21T06:15:35;16.20;99.90
5846;DHT22;2949;50.778;7.094;2022-08-21T06:18:01;16.40;99.90
5846;DHT22;2949;50.778;7.094;2022-08-21T06:20:27;16.60;99.90
5846;DHT22;2949;50.778;7.094;2022-08-21T06:22:53;16.80;99.90
5846;DHT22;2949;50.778;7.094;2022-08-21T06:25:18;17.00;99.90
5846;DHT22;2949;50.778;7.094;2022-08-21T06:27:45;17.20;99.90
5846;DHT22;2949;50.778;7.094;2022-08-21T06:30:11;17.80;99.90
5846;DHT22;2949;50.778;7.094;2022-08-21T06:32:37;20.00;99.90
5846;DHT22;2949;50.778;7.094;2022-08-21T06:35:03;22.60;99.90
5846;DHT22;2949;50.778;7.094;2022-08-21T06:37:29;24.30;99.90
5846;DHT22;2949;50.778;7.094;2022-08-21T06:39:55;25.70;99.90
5846;DHT22;2949;50.778;7.094;2022-08-21T06:42:20;26.90;98.60
5846;DHT22;2949;50.778;7.094;2022-08-21T06:44:46;27.60;94.90
5846;DHT22;2949;50.778;7.094;2022-08-21T06:47:13;28.50;92.70
5846;DHT22;2949;50.778;7.094;2022-08-21T06:49:38;29.50;90.20
5846;DHT22;2949;50.778;7.094;2022-08-21T06:52:09;30.30;83.00
5846;DHT22;2949;50.778;7.094;2022-08-21T06:54:35;30.70;77.90
5846;DHT22;2949;50.778;7.094;2022-08-21T06:57:01;31.10;75.10
5846;DHT22;2949;50.778;7.094;2022-08-21T06:59:26;31.50;73.00
5846;DHT22;2949;50.778;7.094;2022-08-21T07:01:52;31.90;70.80
5846;DHT22;2949;50.778;7.094;2022-08-21T07:04:17;32.00;69.30
5846;DHT22;2949;50.778;7.094;2022-08-21T07:06:43;32.70;67.70
5846;DHT22;2949;50.778;7.094;2022-08-21T07:09:09;33.30;66.00
5846;DHT22;2949;50.778;7.094;2022-08-21T07:11:36;34.20;63.50
5846;DHT22;2949;50.778;7.094;2022-08-21T07:14:02;35.10;60.60
5846;DHT22;2949;50.778;7.094;2022-08-21T07:16:28;35.90;56.80
5846;DHT22;2949;50.778;7.094;2022-08-21T07:18:53;36.30;54.40
5846;DHT22;2949;50.778;7.094;2022-08-21T07:21:19;36.60;53.60
5846;DHT22;2949;50.778;7.094;2022-08-21T07:23:47;36.60;52.00
5846;DHT22;2949;50.778;7.094;2022-08-21T07:26:15;36.80;51.70
5846;DHT22;2949;50.778;7.094;2022-08-21T07:28:41;37.00;51.20
5846;DHT22;2949;50.778;7.094;2022-08-21T07:31:09;37.50;49.10
5846;DHT22;2949;50.778;7.094;2022-08-21T07:33:36;38.00;49.00
5846;DHT22;2949;50.778;7.094;2022-08-21T07:36:02;38.50;47.10
5846;DHT22;2949;50.778;7.094;2022-08-21T07:38:28;38.70;45.90
5846;DHT22;2949;50.778;7.094;2022-08-21T07:40:55;39.00;45.20
5846;DHT22;2949;50.778;7.094;2022-08-21T07:43:22;38.50;45.50
5846;DHT22;2949;50.778;7.094;2022-08-21T07:45:48;38.50;45.50
5846;DHT22;2949;50.778;7.094;2022-08-21T07:48:15;38.60;44.50
5846;DHT22;2949;50.778;7.094;2022-08-21T07:50:41;39.10;43.30
5846;DHT22;2949;50.778;7.094;2022-08-21T07:53:07;39.50;42.40
5846;DHT22;2949;50.778;7.094;2022-08-21T07:55:33;38.90;42.10
5846;DHT22;2949;50.778;7.094;2022-08-21T07:57:58;38.70;41.60
5846;DHT22;2949;50.778;7.094;2022-08-21T08:00:26;38.80;42.50
5846;DHT22;2949;50.778;7.094;2022-08-21T08:02:53;39.10;41.70
5846;DHT22;2949;50.778;7.094;2022-08-21T08:05:23;39.10;41.30
5846;DHT22;2949;50.778;7.094;2022-08-21T08:07:49;39.50;39.50
5846;DHT22;2949;50.778;7.094;2022-08-21T08:10:15;39.10;40.40
5846;DHT22;2949;50.778;7.094;2022-08-21T08:12:42;39.00;39.90
5846;DHT22;2949;50.778;7.094;2022-08-21T08:15:14;39.20;39.90
5846;DHT22;2949;50.778;7.094;2022-08-21T08:17:40;39.30;39.30
5846;DHT22;2949;50.778;7.094;2022-08-21T08:20:07;39.60;38.30
5846;DHT22;2949;50.778;7.094;2022-08-21T08:22:34;38.90;39.00
5846;DHT22;2949;50.778;7.094;2022-08-21T08:25:00;39.00;39.30
5846;DHT22;2949;50.778;7.094;2022-08-21T08:27:25;39.20;38.60
5846;DHT22;2949;50.778;7.094;2022-08-21T08:29:51;39.30;38.40
5846;DHT22;2949;50.778;7.094;2022-08-21T08:32:18;39.90;38.20
5846;DHT22;2949;50.778;7.094;2022-08-21T08:34:43;40.60;36.40
5846;DHT22;2949;50.778;7.094;2022-08-21T08:37:10;40.50;36.30
5846;DHT22;2949;50.778;7.094;2022-08-21T08:39:36;40.10;36.60
5846;DHT22;2949;50.778;7.094;2022-08-21T08:42:07;40.20;36.20
5846;DHT22;2949;50.778;7.094;2022-08-21T08:44:35;40.30;36.10
5846;DHT22;2949;50.778;7.094;2022-08-21T08:47:01;40.30;36.10
5846;DHT22;2949;50.778;7.094;2022-08-21T08:49:39;40.40;35.70
5846;DHT22;2949;50.778;7.094;2022-08-21T08:57:31;40.50;35.30
5846;DHT22;2949;50.778;7.094;2022-08-21T09:00:00;40.40;35.40
5846;DHT22;2949;50.778;7.094;2022-08-21T09:02:26;40.70;35.30
5846;DHT22;2949;50.778;7.094;2022-08-21T09:04:55;40.40;34.80
5846;DHT22;2949;50.778;7.094;2022-08-21T09:10:18;39.80;35.10
5846;DHT22;2949;50.778;7.094;2022-08-21T09:13:15;39.90;35.20
5846;DHT22;2949;50.778;7.094;2022-08-21T09:15:58;39.40;35.30
5846;DHT22;2949;50.778;7.094;2022-08-21T09:18:40;39.40;34.90
5846;DHT22;2949;50.778;7.094;2022-08-21T09:27:11;39.70;34.90
5846;DHT22;2949;50.778;7.094;2022-08-21T09:29:44;39.00;35.30
5846;DHT22;2949;50.778;7.094;2022-08-21T09:32:22;39.10;35.30
5846;DHT22;2949;50.778;7.094;2022-08-21T09:35:09;39.30;35.00
5846;DHT22;2949;50.778;7.094;2022-08-21T09:40:39;39.40;34.40
5846;DHT22;2949;50.778;7.094;2022-08-21T09:45:40;38.90;34.20
5846;DHT22;2949;50.778;7.094;2022-08-21T09:48:14;38.70;35.10
5846;DHT22;2949;50.778;7.094;2022-08-21T09:50:41;39.30;33.80
5846;DHT22;2949;50.778;7.094;2022-08-21T09:53:28;39.40;33.10
5846;DHT22;2949;50.778;7.094;2022-08-21T09:55:58;38.60;34.20
5846;DHT22;2949;50.778;7.094;2022-08-21T09:58:48;38.10;34.90
5846;DHT22;2949;50.778;7.094;2022-08-21T10:01:24;38.40;35.40
5846;DHT22;2949;50.778;7.094;2022-08-21T10:04:05;38.40;34.90
5846;DHT22;2949;50.778;7.094;2022-08-21T10:06:32;38.50;34.90
5846;DHT22;2949;50.778;7.094;2022-08-21T10:09:05;38.60;34.50
5846;DHT22;2949;50.778;7.094;2022-08-21T10:11:32;38.40;35.40
5846;DHT22;2949;50.778;7.094;2022-08-21T10:14:05;38.00;35.40
5846;DHT22;2949;50.778;7.094;2022-08-21T10:17:01;38.00;34.60
5846;DHT22;2949;50.778;7.094;2022-08-21T10:20:20;38.60;33.80
5846;DHT22;2949;50.778;7.094;2022-08-21T10:25:26;38.90;33.80
5846;DHT22;2949;50.778;7.094;2022-08-21T10:30:44;37.50;34.70
5846;DHT22;2949;50.778;7.094;2022-08-21T10:33:24;37.20;34.70
5846;DHT22;2949;50.778;7.094;2022-08-21T10:36:05;37.00;34.80
5846;DHT22;2949;50.778;7.094;2022-08-21T10:41:28;36.80;34.70
5846;DHT22;2949;50.778;7.094;2022-08-21T10:47:11;37.20;34.20
5846;DHT22;2949;50.778;7.094;2022-08-21T10:49:48;36.90;34.70
5846;DHT22;2949;50.778;7.094;2022-08-21T10:52:33;35.90;36.00
5846;DHT22;2949;50.778;7.094;2022-08-21T10:55:15;35.40;36.20
5846;DHT22;2949;50.778;7.094;2022-08-21T10:57:47;34.50;37.50
5846;DHT22;2949;50.778;7.094;2022-08-21T11:00:21;34.70;37.20
5846;DHT22;2949;50.778;7.094;2022-08-21T11:03:13;34.60;37.10
5846;DHT22;2949;50.778;7.094;2022-08-21T11:05:50;34.20;37.00
5846;DHT22;2949;50.778;7.094;2022-08-21T11:08:33;33.30;38.40
5846;DHT22;2949;50.778;7.094;2022-08-21T11:11:05;31.80;39.90
5846;DHT22;2949;50.778;7.094;2022-08-21T11:13:43;31.10;41.40
5846;DHT22;2949;50.778;7.094;2022-08-21T11:19:00;30.40;43.00
5846;DHT22;2949;50.778;7.094;2022-08-21T11:29:37;30.10;44.40
5846;DHT22;2949;50.778;7.094;2022-08-21T11:40:50;30.00;45.20
5846;DHT22;2949;50.778;7.094;2022-08-21T11:46:31;29.10;46.80
5846;DHT22;2949;50.778;7.094;2022-08-21T11:52:34;29.20;45.90
5846;DHT22;2949;50.778;7.094;2022-08-21T11:54:49;29.40;45.70
5846;DHT22;2949;50.778;7.094;2022-08-21T11:57:24;29.40;46.00
5846;DHT22;2949;50.778;7.094;2022-08-21T12:00:01;29.50;45.70
5846;DHT22;2949;50.778;7.094;2022-08-21T12:02:33;29.30;45.90
5846;DHT22;2949;50.778;7.094;2022-08-21T12:05:03;29.50;45.90
5846;DHT22;2949;50.778;7.094;2022-08-21T12:07:35;29.60;46.00
5846;DHT22;2949;50.778;7.094;2022-08-21T12:10:05;29.70;45.50
5846;DHT22;2949;50.778;7.094;2022-08-21T12:12:36;29.80;45.70
5846;DHT22;2949;50.778;7.094;2022-08-21T12:20:34;30.00;44.40
5846;DHT22;2949;50.778;7.094;2022-08-21T12:28:10;29.90;43.60
5846;DHT22;2949;50.778;7.094;2022-08-21T12:30:40;29.90;43.70
5846;DHT22;2949;50.778;7.094;2022-08-21T12:35:44;29.30;44.60
5846;DHT22;2949;50.778;7.094;2022-08-21T12:38:39;29.30;45.00
5846;DHT22;2949;50.778;7.094;2022-08-21T12:41:14;29.10;44.80
5846;DHT22;2949;50.778;7.094;2022-08-21T12:43:46;29.00;44.70
5846;DHT22;2949;50.778;7.094;2022-08-21T12:46:22;29.00;44.30
5846;DHT22;2949;50.778;7.094;2022-08-21T12:48:52;28.90;44.10
5846;DHT22;2949;50.778;7.094;2022-08-21T12:51:30;28.90;45.20
5846;DHT22;2949;50.778;7.094;2022-08-21T12:53:58;29.00;45.50
5846;DHT22;2949;50.778;7.094;2022-08-21T12:56:27;28.80;45.60
5846;DHT22;2949;50.778;7.094;2022-08-21T12:59:00;28.60;45.80
5846;DHT22;2949;50.778;7.094;2022-08-21T13:01:48;28.50;46.10
5846;DHT22;2949;50.778;7.094;2022-08-21T13:04:24;28.30;46.30
5846;DHT22;2949;50.778;7.094;2022-08-21T13:06:53;28.00;46.40
5846;DHT22;2949;50.778;7.094;2022-08-21T13:09:24;27.70;46.70
5846;DHT22;2949;50.778;7.094;2022-08-21T13:11:51;27.60;46.60
5846;DHT22;2949;50.778;7.094;2022-08-21T13:14:35;27.90;46.70
5846;DHT22;2949;50.778;7.094;2022-08-21T13:17:04;28.20;47.40
5846;DHT22;2949;50.778;7.094;2022-08-21T13:19:30;28.40;46.70
5846;DHT22;2949;50.778;7.094;2022-08-21T13:21:57;28.60;45.90
5846;DHT22;2949;50.778;7.094;2022-08-21T13:24:25;28.70;45.80
5846;DHT22;2949;50.778;7.094;2022-08-21T13:26:52;28.80;46.30
5846;DHT22;2949;50.778;7.094;2022-08-21T13:29:20;28.90;46.20
5846;DHT22;2949;50.778;7.094;2022-08-21T13:32:00;28.90;46.30
5846;DHT22;2949;50.778;7.094;2022-08-21T13:34:31;28.90;46.80
5846;DHT22;2949;50.778;7.094;2022-08-21T13:36:59;28.80;46.70
5846;DHT22;2949;50.778;7.094;2022-08-21T13:39:26;28.80;46.10
5846;DHT22;2949;50.778;7.094;2022-08-21T13:41:55;28.70;47.20
5846;DHT22;2949;50.778;7.094;2022-08-21T13:44:24;28.50;46.80
5846;DHT22;2949;50.778;7.094;2022-08-21T13:47:00;28.30;47.00
5846;DHT22;2949;50.778;7.094;2022-08-21T13:49:31;28.10;48.00
5846;DHT22;2949;50.778;7.094;2022-08-21T13:51:57;27.80;48.80
5846;DHT22;2949;50.778;7.094;2022-08-21T13:54:42;27.60;48.80
5846;DHT22;2949;50.778;7.094;2022-08-21T13:57:17;27.50;49.10
5846;DHT22;2949;50.778;7.094;2022-08-21T13:59:44;27.30;49.60
5846;DHT22;2949;50.778;7.094;2022-08-21T14:02:19;27.40;50.70
5846;DHT22;2949;50.778;7.094;2022-08-21T14:04:57;27.60;50.70
5846;DHT22;2949;50.778;7.094;2022-08-21T14:07:31;27.90;49.90
5846;DHT22;2949;50.778;7.094;2022-08-21T14:10:05;28.20;49.10
5846;DHT22;2949;50.778;7.094;2022-08-21T14:12:42;28.30;48.70
5846;DHT22;2949;50.778;7.094;2022-08-21T14:15:09;28.50;48.60
5846;DHT22;2949;50.778;7.094;2022-08-21T14:17:41;28.50;47.60
5846;DHT22;2949;50.778;7.094;2022-08-21T14:20:09;28.50;48.50
5846;DHT22;2949;50.778;7.094;2022-08-21T14:22:47;28.40;48.50
5846;DHT22;2949;50.778;7.094;2022-08-21T14:25:15;28.30;49.10
5846;DHT22;2949;50.778;7.094;2022-08-21T14:30:39;28.10;49.40
5846;DHT22;2949;50.778;7.094;2022-08-21T14:33:13;28.00;50.00
5846;DHT22;2949;50.778;7.094;2022-08-21T14:35:40;27.90;49.60
5846;DHT22;2949;50.778;7.094;2022-08-21T14:38:14;27.80;50.30
5846;DHT22;2949;50.778;7.094;2022-08-21T14:40:40;27.70;50.30
5846;DHT22;2949;50.778;7.094;2022-08-21T14:43:07;27.60;50.60
5846;DHT22;2949;50.778;7.094;2022-08-21T14:45:34;27.50;50.80
5846;DHT22;2949;50.778;7.094;2022-08-21T14:48:02;27.50;50.70
5846;DHT22;2949;50.778;7.094;2022-08-21T14:50:28;27.30;51.10
5846;DHT22;2949;50.778;7.094;2022-08-21T14:52:54;27.30;51.30
5846;DHT22;2949;50.778;7.094;2022-08-21T14:55:19;27.30;51.50
5846;DHT22;2949;50.778;7.094;2022-08-21T14:57:47;27.30;51.70
5846;DHT22;2949;50.778;7.094;2022-08-21T15:00:16;27.40;51.50
5846;DHT22;2949;50.778;7.094;2022-08-21T15:02:44;27.60;51.70
5846;DHT22;2949;50.778;7.094;2022-08-21T15:05:10;27.80;51.10
5846;DHT22;2949;50.778;7.094;2022-08-21T15:07:36;28.00;50.60
5846;DHT22;2949;50.778;7.094;2022-08-21T15:10:01;28.10;51.00
5846;DHT22;2949;50.778;7.094;2022-08-21T15:12:27;28.30;51.00
5846;DHT22;2949;50.778;7.094;2022-08-21T15:14:53;28.50;50.60
5846;DHT22;2949;50.778;7.094;2022-08-21T15:17:19;28.60;50.20
5846;DHT22;2949;50.778;7.094;2022-08-21T15:19:45;28.50;50.20
5846;DHT22;2949;50.778;7.094;2022-08-21T15:22:10;28.40;50.30
5846;DHT22;2949;50.778;7.094;2022-08-21T15:24:36;28.30;50.50
5846;DHT22;2949;50.778;7.094;2022-08-21T15:27:03;28.20;50.90
5846;DHT22;2949;50.778;7.094;2022-08-21T15:29:31;28.30;51.20
5846;DHT22;2949;50.778;7.094;2022-08-21T15:32:00;28.20;50.80
5846;DHT22;2949;50.778;7.094;2022-08-21T15:34:28;28.10;50.90
5846;DHT22;2949;50.778;7.094;2022-08-21T15:36:56;27.90;51.00
5846;DHT22;2949;50.778;7.094;2022-08-21T15:39:21;27.80;51.20
5846;DHT22;2949;50.778;7.094;2022-08-21T15:41:47;27.70;51.20
5846;DHT22;2949;50.778;7.094;2022-08-21T15:44:14;27.60;51.70
5846;DHT22;2949;50.778;7.094;2022-08-21T15:46:40;27.60;52.00
5846;DHT22;2949;50.778;7.094;2022-08-21T15:49:06;27.50;51.80
5846;DHT22;2949;50.778;7.094;2022-08-21T15:51:33;27.30;52.00
5846;DHT22;2949;50.778;7.094;2022-08-21T15:53:59;27.00;52.50
5846;DHT22;2949;50.778;7.094;2022-08-21T15:56:36;26.80;52.80
5846;DHT22;2949;50.778;7.094;2022-08-21T15:59:05;26.80;52.80
5846;DHT22;2949;50.778;7.094;2022-08-21T16:01:32;26.80;52.80
5846;DHT22;2949;50.778;7.094;2022-08-21T16:03:57;26.70;52.90
5846;DHT22;2949;50.778;7.094;2022-08-21T16:06:23;26.70;52.60
5846;DHT22;2949;50.778;7.094;2022-08-21T16:08:48;26.70;53.00
5846;DHT22;2949;50.778;7.094;2022-08-21T16:11:15;26.60;52.80
5846;DHT22;2949;50.778;7.094;2022-08-21T16:13:43;26.70;52.90
5846;DHT22;2949;50.778;7.094;2022-08-21T16:16:11;26.80;52.70
5846;DHT22;2949;50.778;7.094;2022-08-21T16:18:38;26.90;52.30
5846;DHT22;2949;50.778;7.094;2022-08-21T16:21:04;27.20;51.90
5846;DHT22;2949;50.778;7.094;2022-08-21T16:23:30;27.60;51.40
5846;DHT22;2949;50.778;7.094;2022-08-21T16:25:58;27.90;50.70
5846;DHT22;2949;50.778;7.094;2022-08-21T16:28:24;28.10;50.00
5846;DHT22;2949;50.778;7.094;2022-08-21T16:30:50;28.30;49.60
5846;DHT22;2949;50.778;7.094;2022-08-21T16:33:21;28.20;49.50
5846;DHT22;2949;50.778;7.094;2022-08-21T16:35:47;27.80;50.10
5846;DHT22;2949;50.778;7.094;2022-08-21T16:38:13;27.60;50.90
5846;DHT22;2949;50.778;7.094;2022-08-21T16:40:38;27.40;51.10
5846;DHT22;2949;50.778;7.094;2022-08-21T16:43:04;27.20;51.50
5846;DHT22;2949;50.778;7.094;2022-08-21T16:45:29;27.00;51.80
5846;DHT22;2949;50.778;7.094;2022-08-21T16:47:55;26.90;52.20
5846;DHT22;2949;50.778;7.094;2022-08-21T16:50:23;26.70;52.40
5846;DHT22;2949;50.778;7.094;2022-08-21T16:52:49;26.60;52.90
5846;DHT22;2949;50.778;7.094;2022-08-21T16:55:16;26.50;53.30
5846;DHT22;2949;50.778;7.094;2022-08-21T16:57:41;26.30;53.50
5846;DHT22;2949;50.778;7.094;2022-08-21T17:00:08;26.20;53.60
5846;DHT22;2949;50.778;7.094;2022-08-21T17:02:42;26.10;54.10
5846;DHT22;2949;50.778;7.094;2022-08-21T17:05:08;26.00;54.50
5846;DHT22;2949;50.778;7.094;2022-08-21T17:07:36;25.90;54.80
5846;DHT22;2949;50.778;7.094;2022-08-21T17:10:02;25.70;55.00
5846;DHT22;2949;50.778;7.094;2022-08-21T17:12:28;25.60;55.40
5846;DHT22;2949;50.778;7.094;2022-08-21T17:14:54;25.50;55.70
5846;DHT22;2949;50.778;7.094;2022-08-21T17:17:20;25.30;55.80
5846;DHT22;2949;50.778;7.094;2022-08-21T17:19:45;25.30;55.80
5846;DHT22;2949;50.778;7.094;2022-08-21T17:22:11;25.20;55.20
5846;DHT22;2949;50.778;7.094;2022-08-21T17:24:37;25.20;55.30
5846;DHT22;2949;50.778;7.094;2022-08-21T17:27:03;25.10;54.70